Time;durP1;ratioP1;P1;durP2;ratioP2;P2;SDS_P1;SDS_P2;PMS_P1;PMS_P2;Temp;Humidity;BMP_temperature;BMP_pressure;BME280_temperature;BME280_humidity;BME280_pressure;Samples;Min_cycle;Max_cycle;Signal;HPM_P1;HPM_P2
2024/02/22 00:01:13;;;;;;;24.20;18.25;;;;;;;9.26;100.00;98672.25;5060124;28;20032;-44
2024/02/22 00:03:38;;;;;;;12.93;7.95;;;;;;;9.39;100.00;98667.09;5078028;28;20477;-44
2024/02/22 00:06:05;;;;;;;29.17;20.73;;;;;;;9.38;100.00;98647.94;5077951;28;20032;-44
2024/02/22 00:08:31;;;;;;;10.02;7.20;;;;;;;9.34;100.00;98623.16;5077921;28;20028;-44
2024/02/22 00:10:59;;;;;;;11.25;6.68;;;;;;;9.34;100.00;98614.50;5076708;28;20414;-44
2024/02/22 00:13:26;;;;;;;12.93;8.18;;;;;;;9.42;100.00;98609.09;5076635;28;20414;-44
2024/02/22 00:15:51;;;;;;;39.42;33.03;;;;;;;9.46;100.00;98593.78;5077883;28;20028;-44
2024/02/22 00:18:18;;;;;;;15.65;11.55;;;;;;;9.56;100.00;98587.19;5076438;28;20043;-44
2024/02/22 00:20:44;;;;;;;14.77;9.15;;;;;;;9.55;100.00;98611.75;5077807;28;20138;-44
2024/02/22 00:23:10;;;;;;;11.10;7.18;;;;;;;9.56;100.00;98592.41;5076885;28;20035;-44
2024/02/22 00:25:35;;;;;;;26.15;21.92;;;;;;;9.62;100.00;98619.66;5077845;28;20016;-44
2024/02/22 00:28:01;;;;;;;15.35;13.57;;;;;;;9.68;100.00;98582.19;5077254;28;20584;-44
2024/02/22 00:30:27;;;;;;;14.90;7.57;;;;;;;9.75;100.00;98597.91;5077729;28;20021;-44
2024/02/22 00:32:55;;;;;;;10.43;7.55;;;;;;;9.77;100.00;98588.84;5078057;28;20046;-44
2024/02/22 00:35:21;;;;;;;25.40;21.10;;;;;;;9.79;100.00;98586.03;5077794;28;20028;-45
2024/02/22 00:37:47;;;;;;;11.60;7.90;;;;;;;9.71;100.00;98573.91;5076689;28;20490;-45
2024/02/22 00:40:17;;;;;;;12.82;7.95;;;;;;;9.71;100.00;98571.28;5077630;28;20071;-45
2024/02/22 00:42:43;;;;;;;6.88;5.72;;;;;;;9.80;100.00;98548.34;5074129;28;20028;-45
2024/02/22 00:45:10;;;;;;;26.05;23.30;;;;;;;9.85;100.00;98547.75;5074436;28;20482;-45
2024/02/22 00:47:36;;;;;;;14.13;10.80;;;;;;;9.92;100.00;98544.13;5073043;28;20025;-45
2024/02/22 00:50:02;;;;;;;114.20;101.30;;;;;;;9.95;100.00;98532.44;5073112;28;20035;-45
2024/02/22 00:52:29;;;;;;;29.25;21.67;;;;;;;9.98;100.00;98514.50;5074336;28;20031;-45
2024/02/22 00:54:55;;;;;;;29.92;19.83;;;;;;;10.12;100.00;98496.13;5074331;28;20498;-45
2024/02/22 00:57:21;;;;;;;13.02;10.73;;;;;;;10.16;100.00;98510.44;5074260;28;20020;-45
2024/02/22 00:59:47;;;;;;;10.45;7.10;;;;;;;10.20;100.00;98506.41;5074241;28;20073;-45
2024/02/22 01:02:12;;;;;;;11.30;8.73;;;;;;;10.30;100.00;98512.13;5074116;28;20021;-46
2024/02/22 01:04:38;;;;;;;14.02;7.85;;;;;;;10.39;100.00;98529.25;5072862;28;20028;-46
2024/02/22 01:07:04;;;;;;;64.35;56.70;;;;;;;10.39;100.00;98524.00;5072720;28;20028;-46
2024/02/22 01:09:30;;;;;;;21.85;11.27;;;;;;;10.56;100.00;98521.78;5074030;28;20017;-46
2024/02/22 01:11:55;;;;;;;16.60;7.95;;;;;;;10.71;100.00;98528.63;5073969;28;20089;-47
2024/02/22 01:14:21;;;;;;;10.70;6.10;;;;;;;10.87;100.00;98507.19;5074075;28;20401;-47
2024/02/22 01:16:50;;;;;;;11.35;7.78;;;;;;;11.00;100.00;98496.63;5073816;28;20332;-47
2024/02/22 01:19:17;;;;;;;8.80;5.55;;;;;;;11.07;100.00;98501.06;5072559;28;20024;-47
2024/02/22 01:21:43;;;;;;;53.72;48.33;;;;;;;11.12;100.00;98502.03;5073720;28;20082;-48
2024/02/22 01:24:09;;;;;;;15.00;8.82;;;;;;;11.17;100.00;98494.34;5073787;28;20032;-48
2024/02/22 01:26:35;;;;;;;9.50;6.68;;;;;;;11.20;100.00;98486.03;5072294;28;20025;-47
2024/02/22 01:29:01;;;;;;;12.07;6.03;;;;;;;11.18;100.00;98482.81;5072240;28;20090;-47
2024/02/22 01:31:26;;;;;;;9.40;8.35;;;;;;;11.12;100.00;98475.75;5073625;28;20031;-48
2024/02/22 01:33:52;;;;;;;16.52;14.50;;;;;;;11.08;100.00;98484.28;5072323;28;20036;-47
2024/02/22 01:36:18;;;;;;;10.43;7.78;;;;;;;10.99;100.00;98487.13;5073556;28;20029;-47
2024/02/22 01:38:44;;;;;;;31.42;22.45;;;;;;;11.04;100.00;98464.69;5072184;28;20047;-48
2024/02/22 01:41:10;;;;;;;10.25;7.22;;;;;;;11.06;100.00;98460.03;5073471;28;20056;-48
2024/02/22 01:43:37;;;;;;;11.75;6.35;;;;;;;11.12;100.00;98456.56;5073427;28;20016;-48
2024/02/22 01:46:03;;;;;;;9.63;7.38;;;;;;;11.30;100.00;98437.50;5073189;28;20545;-48
2024/02/22 01:48:31;;;;;;;10.45;5.05;;;;;;;11.40;100.00;98440.47;5073296;28;20048;-48
2024/02/22 01:50:58;;;;;;;11.68;6.28;;;;;;;11.36;100.00;98434.81;5073264;28;20075;-47
2024/02/22 01:53:30;;;;;;;5.15;3.35;;;;;;;11.31;100.00;98432.03;5073076;28;20367;-48
2024/02/22 01:56:00;;;;;;;11.10;7.75;;;;;;;11.20;100.00;98438.75;5073151;28;20028;-48
2024/02/22 01:58:28;;;;;;;16.48;14.73;;;;;;;11.16;100.00;98426.25;5071798;28;20494;-48
2024/02/22 02:00:54;;;;;;;7.30;4.50;;;;;;;11.28;100.00;98423.78;5073017;28;20020;-48
2024/02/22 02:03:20;;;;;;;5.15;3.65;;;;;;;11.47;100.00;98406.25;5055107;28;20024;-48
2024/02/22 02:05:46;;;;;;;8.48;6.95;;;;;;;11.61;100.00;98420.94;5072768;28;20027;-48
2024/02/22 02:08:12;;;;;;;6.07;3.60;;;;;;;11.72;100.00;98407.09;5072987;28;20517;-48
2024/02/22 02:10:38;;;;;;;4.55;2.60;;;;;;;11.72;100.00;98401.81;5072795;28;20036;-49
2024/02/22 02:13:05;;;;;;;5.55;3.80;;;;;;;11.71;100.00;98402.88;5071478;28;20035;-48
2024/02/22 02:15:32;;;;;;;17.50;15.77;;;;;;;11.75;100.00;98384.81;5072762;28;20021;-49
2024/02/22 02:17:58;;;;;;;4.90;3.10;;;;;;;11.91;100.00;98381.69;5072700;28;20023;-48
2024/02/22 02:20:27;;;;;;;4.38;3.53;;;;;;;12.00;100.00;98379.59;5071467;28;20024;-48
2024/02/22 02:23:27;;;;;;;5.78;2.60;;;;;;;12.12;100.00;98371.78;5071265;28;20032;-49
2024/02/22 02:25:53;;;;;;;5.72;3.03;;;;;;;12.23;100.00;98357.09;5071123;28;20028;-48
2024/02/22 02:28:18;;;;;;;7.53;5.70;;;;;;;12.25;100.00;98355.84;5072245;28;20398;-49
2024/02/22 02:30:44;;;;;;;5.10;3.00;;;;;;;12.27;100.00;98364.31;5072451;28;20130;-48
2024/02/22 02:33:10;;;;;;;3.08;2.47;;;;;;;12.32;100.00;98371.56;5072371;28;20036;-48
2024/02/22 02:35:37;;;;;;;9.85;8.80;;;;;;;12.35;100.00;98350.06;5072313;28;20024;-48
2024/02/22 02:38:13;;;;;;;3.42;2.70;;;;;;;12.30;100.00;98342.84;5072263;28;20024;-48
2024/02/22 02:40:39;;;;;;;87.28;78.90;;;;;;;12.23;100.00;98357.09;5072290;28;20028;-48
2024/02/22 02:43:06;;;;;;;92.60;83.68;;;;;;;12.21;100.00;98346.78;5072219;28;20020;-48
2024/02/22 02:45:33;;;;;;;48.05;43.15;;;;;;;12.13;100.00;98339.19;5072174;28;20035;-48
2024/02/22 02:47:58;;;;;;;29.25;26.50;;;;;;;11.99;100.00;98330.63;5072133;28;20028;-48
2024/02/22 02:50:24;;;;;;;57.97;51.88;;;;;;;11.77;100.00;98323.13;5072122;28;20024;-48
2024/02/22 02:52:51;;;;;;;70.93;63.83;;;;;;;11.58;100.00;98332.00;5072110;28;20082;-47
2024/02/22 02:55:18;;;;;;;26.67;24.02;;;;;;;11.35;100.00;98330.75;5072089;28;20028;-47
2024/02/22 02:57:44;;;;;;;21.23;19.17;;;;;;;11.22;100.00;98328.22;5072024;28;20436;-47
2024/02/22 03:00:12;;;;;;;9.77;7.82;;;;;;;11.21;100.00;98331.88;5071964;28;20025;-46
2024/02/22 03:02:41;;;;;;;13.68;11.43;;;;;;;11.18;100.00;98314.69;5071978;28;20028;-46
2024/02/22 03:05:08;;;;;;;7.82;5.55;;;;;;;11.23;100.00;98302.75;5070134;28;20101;-46
2024/02/22 03:07:34;;;;;;;22.88;20.65;;;;;;;11.18;100.00;98311.28;5070550;28;20444;-46
2024/02/22 03:10:00;;;;;;;12.85;8.15;;;;;;;11.13;100.00;98326.88;5070592;28;20039;-46
2024/02/22 03:12:25;;;;;;;8.35;6.75;;;;;;;11.12;100.00;98309.50;5071830;28;20024;-46
2024/02/22 03:14:51;;;;;;;10.85;6.38;;;;;;;11.16;100.00;98308.84;5071853;28;20033;-46
2024/02/22 03:17:17;;;;;;;8.60;5.07;;;;;;;11.15;100.00;98319.59;5071767;28;20032;-46
2024/02/22 03:19:43;;;;;;;9.35;8.50;;;;;;;11.12;100.00;98309.50;5071678;28;20036;-46
2024/02/22 03:22:10;;;;;;;11.75;7.45;;;;;;;10.99;100.00;98315.66;5070465;28;20025;-46
2024/02/22 03:24:36;;;;;;;6.57;4.70;;;;;;;10.85;100.00;98312.31;5071673;28;20043;-46
2024/02/22 03:27:03;;;;;;;12.10;8.63;;;;;;;10.66;100.00;98300.09;5071276;28;20028;-46
2024/02/22 03:29:29;;;;;;;14.32;7.93;;;;;;;10.53;100.00;98283.41;5071689;28;20035;-46
2024/02/22 03:31:55;;;;;;;8.98;5.78;;;;;;;10.50;100.00;98265.47;5071899;28;20118;-46
2024/02/22 03:34:22;;;;;;;6.30;4.82;;;;;;;10.55;100.00;98267.47;5070353;28;20056;-45
2024/02/22 03:36:48;;;;;;;6.45;4.82;;;;;;;10.57;100.00;98278.56;5071560;28;20033;-45
2024/02/22 03:39:14;;;;;;;8.43;7.32;;;;;;;10.63;100.00;98266.41;5071590;28;20020;-45
2024/02/22 03:41:40;;;;;;;7.55;4.40;;;;;;;10.62;100.00;98257.72;5071542;28;20009;-45
2024/02/22 03:44:06;;;;;;;21.40;16.58;;;;;;;10.57;100.00;98253.09;5071527;28;20032;-45
2024/02/22 03:46:32;;;;;;;10.45;6.38;;;;;;;10.52;100.00;98249.50;5071442;28;20021;-45
2024/02/22 03:48:58;;;;;;;9.30;4.80;;;;;;;10.47;100.00;98250.13;5071489;28;20023;-45
2024/02/22 03:51:24;;;;;;;8.10;4.18;;;;;;;10.55;100.00;98246.47;5071468;28;20024;-45
2024/02/22 03:53:50;;;;;;;3.90;3.50;;;;;;;10.57;100.00;98232.13;5071770;28;20112;-45
2024/02/22 03:56:16;;;;;;;10.25;4.97;;;;;;;10.54;100.00;98219.44;5071409;28;20039;-45
2024/02/22 03:58:42;;;;;;;11.48;8.40;;;;;;;10.54;100.00;98223.84;5070083;28;20028;-45
2024/02/22 04:01:08;;;;;;;11.50;6.13;;;;;;;10.45;100.00;98220.69;5071450;28;20079;-45
2024/02/22 04:03:34;;;;;;;12.43;5.85;;;;;;;10.41;100.00;98218.72;5071302;28;20025;-45
2024/02/22 04:06:01;;;;;;;89.28;73.95;;;;;;;10.34;100.00;98222.16;5071313;28;20017;-45
2024/02/22 04:08:26;;;;;;;14.32;10.45;;;;;;;10.34;100.00;98216.94;5070114;28;20028;-45
2024/02/22 04:10:52;;;;;;;9.68;5.80;;;;;;;10.35;100.00;98220.34;5071279;28;20397;-45
2024/02/22 04:13:18;;;;;;;8.82;5.47;;;;;;;10.41;100.00;98227.38;5071347;28;20619;-45
2024/02/22 04:15:44;;;;;;;11.63;6.10;;;;;;;10.46;100.00;98216.25;5071341;28;20016;-45
2024/02/22 04:18:11;;;;;;;9.32;6.97;;;;;;;10.48;100.00;98224.69;5073850;28;20066;-45
2024/02/22 04:20:37;;;;;;;9.10;5.07;;;;;;;10.48;100.00;98215.00;5074959;28;20025;-45
2024/02/22 04:23:03;;;;;;;6.50;4.88;;;;;;;10.40;100.00;98215.25;5074893;28;20025;-45
2024/02/22 04:25:29;;;;;;;62.35;55.90;;;;;;;10.26;100.00;98227.63;5073540;28;20074;-45
2024/02/22 04:27:54;;;;;;;21.50;13.85;;;;;;;10.32;100.00;98205.00;5074528;28;20045;-45
2024/02/22 04:30:20;;;;;;;0.20;0.20;;;;;;;10.36;100.00;98193.91;5074847;28;20490;-45
2024/02/22 04:32:49;;;;;;;0.05;0.05;;;;;;;10.36;100.00;98209.66;5074771;28;20020;-45
2024/02/22 04:35:15;;;;;;;0.70;0.40;;;;;;;10.41;100.00;98203.75;5073353;28;20025;-45
2024/02/22 04:37:41;;;;;;;0.00;0.00;;;;;;;10.47;100.00;98192.41;5074704;28;20035;-45
2024/02/22 04:40:07;;;;;;;0.05;0.05;;;;;;;10.45;100.00;98180.53;5074621;28;20062;-45
2024/02/22 04:42:33;;;;;;;0.55;0.55;;;;;;;10.43;100.00;98180.75;5074480;28;20032;-46
2024/02/22 04:45:01;;;;;;;0.00;0.00;;;;;;;10.52;100.00;98183.91;5074559;28;20399;-45
2024/02/22 04:47:27;;;;;;;0.15;0.15;;;;;;;10.55;100.00;98189.53;5074394;28;20063;-45
2024/02/22 04:49:52;;;;;;;0.43;0.43;;;;;;;10.58;100.00;98190.94;5074444;28;20479;-45
2024/02/22 04:52:18;;;;;;;0.00;0.00;;;;;;;10.59;100.00;98189.94;5073135;28;20028;-45
2024/02/22 04:54:44;;;;;;;0.00;0.00;;;;;;;10.47;100.00;98202.13;5073107;28;20028;-46
2024/02/22 04:57:10;;;;;;;0.47;0.47;;;;;;;10.50;100.00;98206.94;5073008;28;20482;-45
2024/02/22 04:59:35;;;;;;;0.00;0.00;;;;;;;10.49;100.00;98213.22;5074339;28;20038;-46
2024/02/22 05:02:01;;;;;;;0.00;0.00;;;;;;;10.59;100.00;98218.78;5074275;28;20044;-46
2024/02/22 05:04:27;;;;;;;0.15;0.15;;;;;;;10.55;100.00;98205.28;5072838;28;20078;-46
2024/02/22 05:06:53;;;;;;;0.88;0.88;;;;;;;10.49;100.00;98198.25;5074069;28;20032;-46
2024/02/22 05:09:18;;;;;;;0.10;0.10;;;;;;;10.43;100.00;98186.00;5074143;28;20474;-44
2024/02/22 05:11:48;;;;;;;0.35;0.35;;;;;;;10.53;100.00;98183.72;5073970;28;20051;-44
2024/02/22 05:14:14;;;;;;;0.22;0.22;;;;;;;10.61;100.00;98180.03;5072718;28;20387;-44
2024/02/22 05:16:40;;;;;;;0.10;0.10;;;;;;;10.48;100.00;98167.78;5073967;28;20107;-44
2024/02/22 05:19:06;;;;;;;0.98;0.98;;;;;;;10.44;100.00;98160.56;5073918;28;20069;-44
2024/02/22 05:21:32;;;;;;;0.55;0.28;;;;;;;10.32;100.00;98144.69;5073750;28;20119;-44
2024/02/22 05:23:58;;;;;;;0.10;0.10;;;;;;;10.31;100.00;98132.59;5073794;28;20078;-44
2024/02/22 05:26:24;;;;;;;0.00;0.00;;;;;;;10.32;100.00;98119.28;5072374;28;20604;-44
2024/02/22 05:28:49;;;;;;;0.00;0.00;;;;;;;10.20;100.00;98128.78;5071781;28;20093;-44
2024/02/22 05:31:24;;;;;;;0.73;0.73;;;;;;;10.05;100.00;98109.94;5072397;28;20031;-44
2024/02/22 05:33:50;;;;;;;0.55;0.55;;;;;;;10.03;100.00;98091.00;5072295;28;20020;-44
2024/02/22 05:36:18;;;;;;;2.05;1.92;;;;;;;10.05;100.00;98099.47;5073585;28;20024;-44
2024/02/22 05:38:48;;;;;;;1.65;1.55;;;;;;;10.09;100.00;98072.59;5073568;28;20390;-44
2024/02/22 05:41:15;;;;;;;1.42;1.10;;;;;;;10.22;100.00;98057.78;5073467;28;20108;-44
2024/02/22 05:43:40;;;;;;;0.00;0.00;;;;;;;10.25;100.00;98062.63;5073466;28;20107;-44
2024/02/22 05:46:07;;;;;;;2.05;1.73;;;;;;;10.28;100.00;98064.81;5073307;28;20522;-44
2024/02/22 05:48:32;;;;;;;0.25;0.25;;;;;;;10.28;100.00;98034.16;5071995;28;20044;-44
2024/02/22 05:50:58;;;;;;;0.40;0.40;;;;;;;10.35;100.00;98052.47;5073254;28;20107;-44
2024/02/22 05:53:24;;;;;;;0.00;0.00;;;;;;;10.39;100.00;98079.88;5073257;28;20028;-44
2024/02/22 05:55:50;;;;;;;0.00;0.00;;;;;;;10.31;100.00;98094.06;5073195;28;20021;-44
2024/02/22 05:58:17;;;;;;;0.20;0.20;;;;;;;10.21;100.00;98098.94;5071879;28;20508;-44
2024/02/22 06:00:44;;;;;;;0.22;0.22;;;;;;;10.20;100.00;98090.28;5073053;28;20020;-44
2024/02/22 06:03:09;;;;;;;0.75;0.75;;;;;;;10.28;100.00;98073.50;5073000;28;20017;-44
2024/02/22 06:05:37;;;;;;;2.05;1.83;;;;;;;10.39;100.00;98077.25;5073006;28;20437;-44
2024/02/22 06:08:04;;;;;;;0.52;0.52;;;;;;;10.41;100.00;98085.72;5072816;28;20028;-44
2024/02/22 06:10:29;;;;;;;4.28;2.70;;;;;;;10.44;100.00;98071.38;5055021;28;20556;-44
2024/02/22 06:12:55;;;;;;;0.85;0.85;;;;;;;10.35;100.00;98076.09;5072910;28;20028;-44
2024/02/22 06:15:24;;;;;;;2.25;2.08;;;;;;;10.31;100.00;98062.59;5072816;28;20553;-44
2024/02/22 06:17:49;;;;;;;0.80;0.80;;;;;;;10.27;100.00;98056.13;5072717;28;20398;-44
2024/02/22 06:20:18;;;;;;;1.17;1.10;;;;;;;10.28;100.00;98046.44;5071323;28;20025;-44
2024/02/22 06:22:44;;;;;;;0.15;0.15;;;;;;;10.29;100.00;98041.00;5072637;28;20021;-44
2024/02/22 06:25:13;;;;;;;3.17;2.90;;;;;;;10.35;100.00;98027.03;5072587;28;20066;-44
2024/02/22 06:27:43;;;;;;;1.45;1.40;;;;;;;10.17;100.00;98033.00;5072196;28;20049;-44
2024/02/22 06:30:10;;;;;;;1.08;0.75;;;;;;;10.33;100.00;98038.78;5071305;28;20082;-44
2024/02/22 06:32:36;;;;;;;0.00;0.00;;;;;;;10.43;100.00;98018.09;5071160;28;20044;-44
2024/02/22 06:35:02;;;;;;;0.00;0.00;;;;;;;10.44;100.00;98038.06;5071088;28;20035;-46
2024/02/22 06:37:27;;;;;;;0.22;0.22;;;;;;;10.58;100.00;98050.06;5072283;28;20398;-45
2024/02/22 06:39:53;;;;;;;0.10;0.10;;;;;;;10.45;100.00;98020.53;5070308;28;20024;-46
2024/02/22 06:42:19;;;;;;;0.00;0.00;;;;;;;10.39;100.00;98033.47;5072538;28;20090;-46
2024/02/22 06:44:48;;;;;;;0.00;0.00;;;;;;;10.45;100.00;98031.81;5072519;28;20025;-46
2024/02/22 06:47:13;;;;;;;0.10;0.10;;;;;;;10.50;100.00;98039.84;5072318;28;20029;-45
2024/02/22 06:49:40;;;;;;;0.03;0.03;;;;;;;10.48;100.00;98028.75;5072452;28;20017;-46
2024/02/22 06:52:07;;;;;;;0.00;0.00;;;;;;;10.50;100.00;98026.72;5070777;28;20028;-46
2024/02/22 06:54:35;;;;;;;0.00;0.00;;;;;;;10.55;100.00;98026.88;5070835;28;20120;-46
2024/02/22 06:57:03;;;;;;;0.13;0.13;;;;;;;10.58;100.00;98026.44;5072131;28;20059;-46
2024/02/22 06:59:29;;;;;;;0.00;0.00;;;;;;;10.65;100.00;98015.09;5072038;28;20031;-46
2024/02/22 07:01:54;;;;;;;0.20;0.20;;;;;;;10.68;100.00;98035.63;5072022;28;20033;-45
2024/02/22 07:04:20;;;;;;;0.00;0.00;;;;;;;10.63;100.00;98043.38;5071164;28;20391;-46
2024/02/22 07:06:46;;;;;;;0.00;0.00;;;;;;;10.54;100.00;98021.84;5070826;28;20450;-46
2024/02/22 07:09:11;;;;;;;0.00;0.00;;;;;;;10.56;100.00;98022.41;5071932;28;20020;-46
2024/02/22 07:11:37;;;;;;;3.85;0.57;;;;;;;10.59;100.00;98011.50;5071843;28;20108;-46
2024/02/22 07:14:04;;;;;;;0.10;0.10;;;;;;;10.55;100.00;98020.84;5071868;28;20035;-46
2024/02/22 07:16:29;;;;;;;0.00;0.00;;;;;;;10.55;100.00;98021.63;5070480;28;20050;-47
2024/02/22 07:18:55;;;;;;;0.17;0.13;;;;;;;10.64;100.00;98016.88;5071868;28;20024;-46
2024/02/22 07:21:21;;;;;;;0.00;0.00;;;;;;;10.84;100.00;98029.81;5070448;28;20552;-46
2024/02/22 07:23:47;;;;;;;0.35;0.35;;;;;;;11.05;100.00;98017.28;5070439;28;20119;-46
2024/02/22 07:26:13;;;;;;;0.00;0.00;;;;;;;11.16;100.00;98004.19;5071624;28;20039;-46
2024/02/22 07:28:39;;;;;;;1.45;0.85;;;;;;;11.12;100.00;98013.53;5070147;28;20048;-45
2024/02/22 07:31:05;;;;;;;0.00;0.00;;;;;;;11.13;100.00;98023.03;5070377;28;20498;-45
2024/02/22 07:33:32;;;;;;;0.00;0.00;;;;;;;11.10;100.00;98014.78;5071691;28;20020;-45
2024/02/22 07:35:58;;;;;;;0.30;0.30;;;;;;;11.24;100.00;98013.59;5071898;28;20052;-46
2024/02/22 07:38:24;;;;;;;0.00;0.00;;;;;;;11.33;100.00;98025.44;5071662;28;20020;-45
2024/02/22 07:40:51;;;;;;;0.00;0.00;;;;;;;11.35;100.00;98026.00;5071590;28;20513;-46
2024/02/22 07:43:17;;;;;;;0.00;0.00;;;;;;;11.42;100.00;98030.38;5071620;28;20021;-46
2024/02/22 07:45:43;;;;;;;0.00;0.00;;;;;;;11.53;100.00;98032.22;5071540;28;20031;-46
2024/02/22 07:48:09;;;;;;;0.10;0.10;;;;;;;11.50;100.00;98027.44;5071539;28;20021;-45
2024/02/22 07:50:36;;;;;;;24.92;22.48;;;;;;;11.55;100.00;98035.44;5071543;28;20396;-46
2024/02/22 07:53:01;;;;;;;18.05;16.33;;;;;;;11.49;100.00;98023.19;5075581;28;20104;-45
2024/02/22 07:55:27;;;;;;;5.97;5.57;;;;;;;11.57;100.00;98028.16;5075809;28;20099;-46
2024/02/22 07:57:53;;;;;;;2.53;2.38;;;;;;;11.58;100.00;98027.91;5074084;28;20028;-45
2024/02/22 08:00:19;;;;;;;2.42;2.22;;;;;;;11.51;100.00;98029.84;5075339;28;20059;-46
2024/02/22 08:02:45;;;;;;;0.30;0.30;;;;;;;11.49;100.00;98049.47;5075268;28;20028;-45
2024/02/22 08:05:11;;;;;;;6.72;2.17;;;;;;;11.42;100.00;98046.94;5057310;28;20521;-46
2024/02/22 08:07:38;;;;;;;0.60;0.55;;;;;;;11.33;100.00;98043.03;5075072;28;20024;-45
2024/02/22 08:10:05;;;;;;;0.08;0.08;;;;;;;11.35;100.00;98041.78;5075150;28;20398;-45
2024/02/22 08:12:34;;;;;;;0.20;0.20;;;;;;;11.46;100.00;98047.31;5075423;28;20035;-45
2024/02/22 08:15:02;;;;;;;0.10;0.10;;;;;;;11.55;100.00;98036.25;5075176;28;20103;-45
2024/02/22 08:17:29;;;;;;;0.00;0.00;;;;;;;11.56;100.00;98037.06;5075065;28;20130;-45
2024/02/22 08:19:55;;;;;;;0.17;0.17;;;;;;;11.52;100.00;98035.91;5074963;28;20021;-46
2024/02/22 08:22:20;;;;;;;0.00;0.00;;;;;;;11.58;100.00;98030.56;5074952;28;20509;-45
2024/02/22 08:24:46;;;;;;;1.10;1.10;;;;;;;11.57;100.00;98012.41;5073590;28;20020;-46
2024/02/22 08:27:12;;;;;;;0.38;0.38;;;;;;;11.54;100.00;98004.94;5073354;28;20105;-46
2024/02/22 08:29:38;;;;;;;0.30;0.30;;;;;;;11.47;100.00;97991.09;5073559;28;20040;-46
2024/02/22 08:32:04;;;;;;;0.68;0.68;;;;;;;11.49;100.00;97995.13;5074816;28;20048;-46
2024/02/22 08:34:31;;;;;;;1.23;1.17;;;;;;;11.49;100.00;97986.41;5074696;28;20032;-46
2024/02/22 08:36:56;;;;;;;0.00;0.00;;;;;;;11.56;100.00;97982.66;5074715;28;20059;-44
2024/02/22 08:39:23;;;;;;;0.38;0.38;;;;;;;11.67;100.00;97973.25;5073423;28;20059;-44
2024/02/22 08:41:48;;;;;;;0.30;0.30;;;;;;;11.89;100.00;97967.47;5073386;28;20025;-44
2024/02/22 08:44:14;;;;;;;0.17;0.17;;;;;;;11.88;100.00;97966.63;5074577;28;20103;-44
2024/02/22 08:46:40;;;;;;;0.00;0.00;;;;;;;11.77;100.00;97952.47;5074436;28;20021;-44
2024/02/22 08:49:06;;;;;;;0.28;0.28;;;;;;;11.72;100.00;97957.56;5073194;28;20025;-44
2024/02/22 08:51:32;;;;;;;1.85;0.47;;;;;;;11.63;100.00;97942.34;5074446;28;20082;-44
2024/02/22 08:53:59;;;;;;;0.52;0.45;;;;;;;11.68;100.00;97955.63;5073130;28;20036;-46
2024/02/22 08:56:25;;;;;;;0.52;0.30;;;;;;;11.66;100.00;97965.56;5074355;28;20024;-46
2024/02/22 08:58:52;;;;;;;0.00;0.00;;;;;;;11.60;100.00;97947.03;5073066;28;20115;-45
2024/02/22 09:01:21;;;;;;;1.77;1.45;;;;;;;11.66;100.00;97944.53;5074320;28;20085;-45
2024/02/22 09:03:47;;;;;;;0.15;0.15;;;;;;;11.77;100.00;97962.16;5073336;28;20056;-46
2024/02/22 09:06:13;;;;;;;0.00;0.00;;;;;;;11.78;100.00;97966.41;5074108;28;20067;-46
2024/02/22 09:08:41;;;;;;;0.00;0.00;;;;;;;11.77;100.00;97968.22;5072901;28;20031;-46
2024/02/22 09:11:07;;;;;;;0.10;0.10;;;;;;;11.84;100.00;97964.69;5074116;28;20032;-46
2024/02/22 09:13:33;;;;;;;0.00;0.00;;;;;;;11.79;100.00;97963.53;5072836;28;20024;-44
2024/02/22 09:16:01;;;;;;;0.55;0.35;;;;;;;11.68;100.00;97956.44;5072757;28;20082;-44
2024/02/22 09:18:27;;;;;;;6.63;3.33;;;;;;;11.76;100.00;97944.78;5072590;28;20028;-44
2024/02/22 09:20:53;;;;;;;3.88;3.53;;;;;;;11.73;100.00;97945.22;5072592;28;20032;-44
2024/02/22 09:23:19;;;;;;;2.47;2.30;;;;;;;11.75;100.00;97930.03;5072594;28;20503;-44
2024/02/22 09:25:46;;;;;;;8.98;2.30;;;;;;;11.56;100.00;97918.81;5073772;28;20036;-44
2024/02/22 09:28:13;;;;;;;0.10;0.10;;;;;;;11.61;100.00;97895.28;5073865;28;20566;-44
2024/02/22 09:30:38;;;;;;;0.10;0.10;;;;;;;11.66;100.00;97879.63;5073674;28;20047;-44
2024/02/22 09:33:05;;;;;;;0.43;0.43;;;;;;;11.74;100.00;97875.88;5073724;28;20486;-44
2024/02/22 09:35:30;;;;;;;0.00;0.00;;;;;;;11.68;100.00;97876.78;5073632;28;20029;-44
2024/02/22 09:37:56;;;;;;;0.20;0.20;;;;;;;11.61;100.00;97866.38;5073654;28;20134;-46
2024/02/22 09:40:23;;;;;;;0.10;0.10;;;;;;;11.56;100.00;97861.00;5073749;28;20103;-45
2024/02/22 09:42:50;;;;;;;0.05;0.05;;;;;;;11.46;100.00;97840.53;5073411;28;20029;-45
2024/02/22 09:45:16;;;;;;;0.10;0.10;;;;;;;11.46;100.00;97843.16;5073462;28;20513;-46
2024/02/22 09:47:44;;;;;;;0.00;0.00;;;;;;;11.43;100.00;97808.66;5073357;28;20099;-45
2024/02/22 09:50:10;;;;;;;0.20;0.20;;;;;;;11.40;100.00;97810.69;5073423;28;20154;-46
2024/02/22 09:52:37;;;;;;;0.05;0.05;;;;;;;11.43;100.00;97792.88;5072061;28;20028;-46
2024/02/22 09:55:05;;;;;;;0.05;0.05;;;;;;;11.39;100.00;97795.19;5071960;28;20029;-46
2024/02/22 09:57:31;;;;;;;1.55;1.10;;;;;;;11.41;100.00;97777.38;5073170;28;20025;-46
2024/02/22 09:59:58;;;;;;;0.38;0.38;;;;;;;11.48;100.00;97769.38;5071867;28;20085;-46
2024/02/22 10:02:24;;;;;;;0.10;0.10;;;;;;;11.64;100.00;97766.03;5073058;28;20024;-47
2024/02/22 10:04:51;;;;;;;0.10;0.10;;;;;;;11.69;100.00;97760.09;5073274;28;20032;-47
2024/02/22 10:07:35;;;;;;;0.00;0.00;;;;;;;11.92;100.00;97756.69;5071641;28;20482;-48
2024/02/22 10:10:01;;;;;;;0.00;0.00;;;;;;;12.08;100.00;97747.28;5072964;28;20020;-48
2024/02/22 10:12:30;;;;;;;0.10;0.10;;;;;;;12.28;100.00;97760.03;5072925;28;20019;-48
2024/02/22 10:14:56;;;;;;;0.28;0.28;;;;;;;12.53;100.00;97751.78;5072715;28;20025;-48
2024/02/22 10:17:30;;;;;;;0.00;0.00;;;;;;;12.68;100.00;97756.53;5072807;28;20048;-48
2024/02/22 10:19:56;;;;;;;0.45;0.45;;;;;;;12.71;100.00;97771.84;5072833;28;20064;-48
2024/02/22 10:22:24;;;;;;;0.00;0.00;;;;;;;12.73;100.00;97753.97;5072906;28;20021;-47
2024/02/22 10:24:52;;;;;;;0.00;0.00;;;;;;;12.81;100.00;97750.16;5072646;28;20024;-46
2024/02/22 10:27:21;;;;;;;0.68;0.68;;;;;;;12.81;100.00;97740.44;5072213;28;20048;-45
2024/02/22 10:29:48;;;;;;;3.33;3.03;;;;;;;12.77;100.00;97739.31;5071306;28;20020;-45
2024/02/22 10:32:20;;;;;;;1.58;1.48;;;;;;;12.60;100.00;97715.59;5072485;28;20376;-44
2024/02/22 10:34:50;;;;;;;1.10;1.10;;;;;;;12.48;100.00;97723.56;5071136;28;20028;-45
2024/02/22 10:37:20;;;;;;;2.42;1.70;;;;;;;12.38;100.00;97712.84;5072386;28;20025;-44
2024/02/22 10:39:49;;;;;;;2.92;2.08;;;;;;;12.31;100.00;97712.19;5054440;28;20024;-44
2024/02/22 10:42:15;;;;;;;0.08;0.08;;;;;;;12.25;100.00;97703.38;5072226;28;20024;-44
2024/02/22 10:44:45;;;;;;;0.55;0.55;;;;;;;12.21;100.00;97694.38;5072537;28;20021;-44
2024/02/22 10:47:14;;;;;;;0.00;0.00;;;;;;;12.17;100.00;97688.00;5072111;28;20368;-46
2024/02/22 10:49:44;;;;;;;0.00;0.00;;;;;;;12.12;100.00;97680.00;5072227;28;20027;-46
2024/02/22 10:52:13;;;;;;;22.77;1.65;;;;;;;12.11;100.00;97668.72;5072153;28;20062;-46
2024/02/22 10:54:41;;;;;;;0.00;0.00;;;;;;;12.08;100.00;97663.13;5071117;28;20024;-46
2024/02/22 10:57:10;;;;;;;0.00;0.00;;;;;;;11.95;100.00;97688.66;5070794;28;20024;-46
2024/02/22 10:59:37;;;;;;;0.30;0.30;;;;;;;11.94;100.00;97694.94;5072075;28;20550;-46
2024/02/22 11:02:03;;;;;;;0.00;0.00;;;;;;;11.87;100.00;97704.75;5072024;28;20029;-46
2024/02/22 11:04:31;;;;;;;0.10;0.10;;;;;;;11.75;100.00;97714.47;5072221;28;20032;-46
2024/02/22 11:07:07;;;;;;;0.17;0.17;;;;;;;11.71;100.00;97693.16;5071817;28;20067;-46
2024/02/22 11:09:46;;;;;;;0.00;0.00;;;;;;;11.71;100.00;97666.88;5072008;28;20035;-47
2024/02/22 11:12:15;;;;;;;0.22;0.22;;;;;;;11.81;100.00;97666.25;5071924;28;20014;-46
2024/02/22 11:14:41;;;;;;;0.40;0.40;;;;;;;11.86;100.00;97636.63;5070619;28;20032;-46
2024/02/22 11:17:17;;;;;;;0.10;0.10;;;;;;;11.84;100.00;97641.34;5071779;28;20047;-46
2024/02/22 11:19:51;;;;;;;0.00;0.00;;;;;;;11.96;100.00;97636.84;5070528;28;20445;-46